sensor_id;sensor_type;location;lat;lon;timestamp;pressure;altitude;pressure_sealevel;temperature
65290;BMP180;51893;59.754;10.110;2023-02-13T00:01:28;102689.60;;;1.94
65290;BMP180;51893;59.754;10.110;2023-02-13T00:03:59;102693.60;;;1.90
65290;BMP180;51893;59.754;10.110;2023-02-13T00:06:32;102704.00;;;1.90
65290;BMP180;51893;59.754;10.110;2023-02-13T00:09:02;102703.80;;;1.90
65290;BMP180;51893;59.754;10.110;2023-02-13T00:11:33;102694.80;;;1.90
65290;BMP180;51893;59.754;10.110;2023-02-13T00:14:01;102696.00;;;1.98
65290;BMP180;51893;59.754;10.110;2023-02-13T00:16:29;102693.00;;;1.90
65290;BMP180;51893;59.754;10.110;2023-02-13T00:18:58;102681.00;;;1.90
65290;BMP180;51893;59.754;10.110;2023-02-13T00:21:26;102685.20;;;1.80
65290;BMP180;51893;59.754;10.110;2023-02-13T00:23:54;102688.20;;;1.70
65290;BMP180;51893;59.754;10.110;2023-02-13T00:26:22;102694.00;;;1.70
65290;BMP180;51893;59.754;10.110;2023-02-13T00:28:51;102691.60;;;1.70
65290;BMP180;51893;59.754;10.110;2023-02-13T00:31:21;102696.80;;;1.60
65290;BMP180;51893;59.754;10.110;2023-02-13T00:33:50;102682.40;;;1.52
65290;BMP180;51893;59.754;10.110;2023-02-13T00:36:22;102685.60;;;1.60
65290;BMP180;51893;59.754;10.110;2023-02-13T00:38:50;102696.60;;;1.60
65290;BMP180;51893;59.754;10.110;2023-02-13T00:41:21;102688.40;;;1.64
65290;BMP180;51893;59.754;10.110;2023-02-13T00:43:49;102681.00;;;1.70
65290;BMP180;51893;59.754;10.110;2023-02-13T00:46:17;102669.40;;;1.80
65290;BMP180;51893;59.754;10.110;2023-02-13T00:48:46;102664.60;;;1.84
65290;BMP180;51893;59.754;10.110;2023-02-13T00:51:15;102666.80;;;1.90
65290;BMP180;51893;59.754;10.110;2023-02-13T00:53:43;102671.80;;;1.90
65290;BMP180;51893;59.754;10.110;2023-02-13T00:56:12;102680.20;;;1.80
65290;BMP180;51893;59.754;10.110;2023-02-13T00:58:39;102660.00;;;1.82
65290;BMP180;51893;59.754;10.110;2023-02-13T01:01:08;102652.80;;;1.90
65290;BMP180;51893;59.754;10.110;2023-02-13T01:03:36;102651.20;;;1.80
65290;BMP180;51893;59.754;10.110;2023-02-13T01:06:06;102646.80;;;1.78
65290;BMP180;51893;59.754;10.110;2023-02-13T01:08:39;102641.60;;;1.70
65290;BMP180;51893;59.754;10.110;2023-02-13T01:11:10;102641.80;;;1.80
65290;BMP180;51893;59.754;10.110;2023-02-13T01:13:38;102658.20;;;1.80
65290;BMP180;51893;59.754;10.110;2023-02-13T01:16:06;102655.60;;;1.80
65290;BMP180;51893;59.754;10.110;2023-02-13T01:18:37;102655.20;;;1.82
65290;BMP180;51893;59.754;10.110;2023-02-13T01:21:20;102664.80;;;1.84
65290;BMP180;51893;59.754;10.110;2023-02-13T01:24:07;102673.60;;;1.80
65290;BMP180;51893;59.754;10.110;2023-02-13T01:26:37;102682.40;;;1.80
65290;BMP180;51893;59.754;10.110;2023-02-13T01:29:04;102669.60;;;1.86
65290;BMP180;51893;59.754;10.110;2023-02-13T01:31:33;102658.00;;;1.84
65290;BMP180;51893;59.754;10.110;2023-02-13T01:34:01;102646.00;;;1.80
65290;BMP180;51893;59.754;10.110;2023-02-13T01:36:29;102654.20;;;1.80
65290;BMP180;51893;59.754;10.110;2023-02-13T01:38:58;102648.40;;;1.82
65290;BMP180;51893;59.754;10.110;2023-02-13T01:41:28;102661.80;;;1.80
65290;BMP180;51893;59.754;10.110;2023-02-13T01:43:59;102658.60;;;1.80
65290;BMP180;51893;59.754;10.110;2023-02-13T01:46:39;102662.00;;;1.88
65290;BMP180;51893;59.754;10.110;2023-02-13T01:49:20;102657.80;;;1.90
65290;BMP180;51893;59.754;10.110;2023-02-13T01:51:53;102668.20;;;1.80
65290;BMP180;51893;59.754;10.110;2023-02-13T01:54:30;102673.60;;;1.70
65290;BMP180;51893;59.754;10.110;2023-02-13T01:57:20;102669.00;;;1.70
65290;BMP180;51893;59.754;10.110;2023-02-13T01:59:55;102661.00;;;1.70
65290;BMP180;51893;59.754;10.110;2023-02-13T02:02:25;102653.60;;;1.70
65290;BMP180;51893;59.754;10.110;2023-02-13T02:04:54;102656.60;;;1.70
65290;BMP180;51893;59.754;10.110;2023-02-13T02:07:28;102658.20;;;1.70
65290;BMP180;51893;59.754;10.110;2023-02-13T02:10:10;102652.20;;;1.74
65290;BMP180;51893;59.754;10.110;2023-02-13T02:15:34;102655.20;;;1.70
65290;BMP180;51893;59.754;10.110;2023-02-13T02:18:06;102646.40;;;1.70
65290;BMP180;51893;59.754;10.110;2023-02-13T02:21:19;102647.80;;;1.70
65290;BMP180;51893;59.754;10.110;2023-02-13T02:24:23;102641.00;;;1.70
65290;BMP180;51893;59.754;10.110;2023-02-13T02:27:26;102651.40;;;1.60
65290;BMP180;51893;59.754;10.110;2023-02-13T02:36:38;102660.20;;;1.60
65290;BMP180;51893;59.754;10.110;2023-02-13T02:45:07;102651.60;;;1.48
65290;BMP180;51893;59.754;10.110;2023-02-13T02:50:50;102665.60;;;1.30
65290;BMP180;51893;59.754;10.110;2023-02-13T02:53:50;102669.40;;;1.30
65290;BMP180;51893;59.754;10.110;2023-02-13T02:56:34;102664.40;;;1.20
65290;BMP180;51893;59.754;10.110;2023-02-13T02:59:10;102660.60;;;1.10
65290;BMP180;51893;59.754;10.110;2023-02-13T03:02:11;102653.80;;;1.10
65290;BMP180;51893;59.754;10.110;2023-02-13T03:05:21;102656.00;;;1.20
65290;BMP180;51893;59.754;10.110;2023-02-13T03:08:11;102665.60;;;1.10
65290;BMP180;51893;59.754;10.110;2023-02-13T03:10:39;102667.60;;;1.08
65290;BMP180;51893;59.754;10.110;2023-02-13T03:13:40;102660.20;;;1.04
65290;BMP180;51893;59.754;10.110;2023-02-13T03:16:16;102658.80;;;1.10
65290;BMP180;51893;59.754;10.110;2023-02-13T03:19:04;102657.20;;;0.90
65290;BMP180;51893;59.754;10.110;2023-02-13T03:31:45;102669.80;;;0.90
65290;BMP180;51893;59.754;10.110;2023-02-13T03:34:24;102659.60;;;0.90
65290;BMP180;51893;59.754;10.110;2023-02-13T03:37:17;102661.20;;;0.90
65290;BMP180;51893;59.754;10.110;2023-02-13T03:40:26;102657.40;;;0.90
65290;BMP180;51893;59.754;10.110;2023-02-13T03:43:14;102651.20;;;0.90
65290;BMP180;51893;59.754;10.110;2023-02-13T03:45:47;102658.00;;;0.90
65290;BMP180;51893;59.754;10.110;2023-02-13T03:48:35;102658.20;;;0.90
65290;BMP180;51893;59.754;10.110;2023-02-13T03:54:06;102660.00;;;0.90
65290;BMP180;51893;59.754;10.110;2023-02-13T03:56:40;102667.00;;;0.84
65290;BMP180;51893;59.754;10.110;2023-02-13T03:59:33;102666.80;;;0.62
65290;BMP180;51893;59.754;10.110;2023-02-13T04:02:16;102669.40;;;0.50
65290;BMP180;51893;59.754;10.110;2023-02-13T04:04:58;102667.20;;;0.50
65290;BMP180;51893;59.754;10.110;2023-02-13T04:07:30;102668.00;;;0.60
65290;BMP180;51893;59.754;10.110;2023-02-13T04:10:14;102672.40;;;0.62
65290;BMP180;51893;59.754;10.110;2023-02-13T04:13:17;102674.60;;;0.62
65290;BMP180;51893;59.754;10.110;2023-02-13T04:15:59;102681.60;;;0.60
65290;BMP180;51893;59.754;10.110;2023-02-13T04:18:32;102669.80;;;0.60
65290;BMP180;51893;59.754;10.110;2023-02-13T04:21:05;102669.80;;;0.60
65290;BMP180;51893;59.754;10.110;2023-02-13T04:23:34;102681.80;;;0.60
65290;BMP180;51893;59.754;10.110;2023-02-13T04:26:20;102670.40;;;0.64
65290;BMP180;51893;59.754;10.110;2023-02-13T04:28:49;102666.60;;;0.70
65290;BMP180;51893;59.754;10.110;2023-02-13T04:31:18;102671.40;;;0.80
65290;BMP180;51893;59.754;10.110;2023-02-13T04:33:47;102676.80;;;0.80
65290;BMP180;51893;59.754;10.110;2023-02-13T04:36:16;102681.00;;;0.80
65290;BMP180;51893;59.754;10.110;2023-02-13T04:38:44;102678.00;;;0.80
65290;BMP180;51893;59.754;10.110;2023-02-13T04:41:14;102685.40;;;0.70
65290;BMP180;51893;59.754;10.110;2023-02-13T04:43:43;102694.00;;;0.60
65290;BMP180;51893;59.754;10.110;2023-02-13T04:46:11;102693.80;;;0.50
65290;BMP180;51893;59.754;10.110;2023-02-13T04:48:40;102688.00;;;0.50
65290;BMP180;51893;59.754;10.110;2023-02-13T04:51:08;102672.60;;;0.50
65290;BMP180;51893;59.754;10.110;2023-02-13T04:53:36;102668.60;;;0.60
65290;BMP180;51893;59.754;10.110;2023-02-13T04:56:04;102674.00;;;0.60
65290;BMP180;51893;59.754;10.110;2023-02-13T04:58:33;102693.20;;;0.54
65290;BMP180;51893;59.754;10.110;2023-02-13T05:01:02;102707.20;;;0.50
65290;BMP180;51893;59.754;10.110;2023-02-13T05:03:37;102707.80;;;0.42
65290;BMP180;51893;59.754;10.110;2023-02-13T05:06:06;102696.60;;;0.40
65290;BMP180;51893;59.754;10.110;2023-02-13T05:08:36;102697.00;;;0.40
65290;BMP180;51893;59.754;10.110;2023-02-13T05:11:07;102701.40;;;0.40
65290;BMP180;51893;59.754;10.110;2023-02-13T05:13:35;102700.40;;;0.42
65290;BMP180;51893;59.754;10.110;2023-02-13T05:16:04;102695.80;;;0.50
65290;BMP180;51893;59.754;10.110;2023-02-13T05:18:34;102704.80;;;0.58
65290;BMP180;51893;59.754;10.110;2023-02-13T05:21:02;102707.80;;;0.60
65290;BMP180;51893;59.754;10.110;2023-02-13T05:23:49;102715.40;;;0.70
65290;BMP180;51893;59.754;10.110;2023-02-13T05:26:16;102722.40;;;0.70
65290;BMP180;51893;59.754;10.110;2023-02-13T05:28:44;102722.60;;;0.70
65290;BMP180;51893;59.754;10.110;2023-02-13T05:31:32;102718.80;;;0.70
65290;BMP180;51893;59.754;10.110;2023-02-13T05:34:00;102714.00;;;0.78
65290;BMP180;51893;59.754;10.110;2023-02-13T05:36:28;102706.60;;;0.80
65290;BMP180;51893;59.754;10.110;2023-02-13T05:38:56;102706.40;;;0.80
65290;BMP180;51893;59.754;10.110;2023-02-13T05:41:24;102700.00;;;0.90
65290;BMP180;51893;59.754;10.110;2023-02-13T05:43:53;102698.40;;;0.88
65290;BMP180;51893;59.754;10.110;2023-02-13T05:46:22;102711.60;;;0.90
65290;BMP180;51893;59.754;10.110;2023-02-13T05:48:51;102710.40;;;0.90
65290;BMP180;51893;59.754;10.110;2023-02-13T05:51:19;102720.20;;;0.90
65290;BMP180;51893;59.754;10.110;2023-02-13T05:53:47;102731.20;;;0.80
65290;BMP180;51893;59.754;10.110;2023-02-13T05:56:16;102735.40;;;0.80
65290;BMP180;51893;59.754;10.110;2023-02-13T05:58:44;102752.00;;;0.80
65290;BMP180;51893;59.754;10.110;2023-02-13T06:01:13;102750.80;;;0.80
65290;BMP180;51893;59.754;10.110;2023-02-13T06:03:41;102752.20;;;0.80
65290;BMP180;51893;59.754;10.110;2023-02-13T06:06:11;102761.20;;;0.80
65290;BMP180;51893;59.754;10.110;2023-02-13T06:08:40;102772.80;;;0.80
65290;BMP180;51893;59.754;10.110;2023-02-13T06:11:09;102787.40;;;0.74
65290;BMP180;51893;59.754;10.110;2023-02-13T06:13:37;102785.60;;;0.70
65290;BMP180;51893;59.754;10.110;2023-02-13T06:16:09;102802.20;;;0.70
65290;BMP180;51893;59.754;10.110;2023-02-13T06:18:38;102809.00;;;0.78
65290;BMP180;51893;59.754;10.110;2023-02-13T06:21:07;102808.20;;;0.84
65290;BMP180;51893;59.754;10.110;2023-02-13T06:23:38;102797.20;;;0.90
65290;BMP180;51893;59.754;10.110;2023-02-13T06:26:08;102789.60;;;0.90
65290;BMP180;51893;59.754;10.110;2023-02-13T06:28:36;102802.20;;;0.90
65290;BMP180;51893;59.754;10.110;2023-02-13T06:31:05;102810.20;;;0.90
65290;BMP180;51893;59.754;10.110;2023-02-13T06:33:33;102808.80;;;0.90
65290;BMP180;51893;59.754;10.110;2023-02-13T06:36:01;102815.40;;;0.84
65290;BMP180;51893;59.754;10.110;2023-02-13T06:38:29;102816.60;;;0.80
65290;BMP180;51893;59.754;10.110;2023-02-13T06:41:00;102816.60;;;0.90
65290;BMP180;51893;59.754;10.110;2023-02-13T06:43:31;102822.00;;;1.04
65290;BMP180;51893;59.754;10.110;2023-02-13T06:46:06;102809.80;;;1.38
65290;BMP180;51893;59.754;10.110;2023-02-13T06:48:35;102788.40;;;1.70
65290;BMP180;51893;59.754;10.110;2023-02-13T06:51:03;102773.20;;;1.90
65290;BMP180;51893;59.754;10.110;2023-02-13T06:53:33;102762.40;;;1.88
65290;BMP180;51893;59.754;10.110;2023-02-13T06:56:03;102759.80;;;1.90
65290;BMP180;51893;59.754;10.110;2023-02-13T06:58:34;102754.40;;;1.90
65290;BMP180;51893;59.754;10.110;2023-02-13T07:01:03;102768.80;;;1.90
65290;BMP180;51893;59.754;10.110;2023-02-13T07:03:38;102763.80;;;1.90
65290;BMP180;51893;59.754;10.110;2023-02-13T07:06:06;102764.80;;;2.00
65290;BMP180;51893;59.754;10.110;2023-02-13T07:08:34;102777.80;;;2.10
65290;BMP180;51893;59.754;10.110;2023-02-13T07:11:02;102797.00;;;2.10
65290;BMP180;51893;59.754;10.110;2023-02-13T07:13:30;102814.40;;;2.10
65290;BMP180;51893;59.754;10.110;2023-02-13T07:16:00;102809.00;;;2.10
65290;BMP180;51893;59.754;10.110;2023-02-13T07:18:28;102806.00;;;2.20
65290;BMP180;51893;59.754;10.110;2023-02-13T07:20:57;102802.00;;;2.30
65290;BMP180;51893;59.754;10.110;2023-02-13T07:23:26;102800.20;;;2.56
65290;BMP180;51893;59.754;10.110;2023-02-13T07:25:54;102802.60;;;2.70
65290;BMP180;51893;59.754;10.110;2023-02-13T07:28:22;102811.80;;;2.80
65290;BMP180;51893;59.754;10.110;2023-02-13T07:30:50;102829.40;;;2.90
65290;BMP180;51893;59.754;10.110;2023-02-13T07:33:23;102830.40;;;2.90
65290;BMP180;51893;59.754;10.110;2023-02-13T07:35:51;102830.60;;;3.00
65290;BMP180;51893;59.754;10.110;2023-02-13T07:38:20;102830.80;;;3.10
65290;BMP180;51893;59.754;10.110;2023-02-13T07:40:48;102838.80;;;3.20
65290;BMP180;51893;59.754;10.110;2023-02-13T07:43:16;102837.00;;;3.30
65290;BMP180;51893;59.754;10.110;2023-02-13T07:45:44;102841.60;;;3.40
65290;BMP180;51893;59.754;10.110;2023-02-13T07:48:13;102840.60;;;3.40
65290;BMP180;51893;59.754;10.110;2023-02-13T07:50:41;102836.00;;;3.40
65290;BMP180;51893;59.754;10.110;2023-02-13T07:53:09;102824.20;;;3.40
65290;BMP180;51893;59.754;10.110;2023-02-13T07:55:37;102826.00;;;3.40
65290;BMP180;51893;59.754;10.110;2023-02-13T07:58:10;102826.60;;;3.36
65290;BMP180;51893;59.754;10.110;2023-02-13T08:00:38;102822.20;;;3.34
65290;BMP180;51893;59.754;10.110;2023-02-13T08:03:06;102828.60;;;3.30
65290;BMP180;51893;59.754;10.110;2023-02-13T08:05:34;102834.00;;;3.34
65290;BMP180;51893;59.754;10.110;2023-02-13T08:08:03;102824.20;;;3.40
65290;BMP180;51893;59.754;10.110;2023-02-13T08:10:31;102818.60;;;3.40
65290;BMP180;51893;59.754;10.110;2023-02-13T08:13:18;102821.20;;;3.50
65290;BMP180;51893;59.754;10.110;2023-02-13T08:15:47;102818.40;;;3.54
65290;BMP180;51893;59.754;10.110;2023-02-13T08:18:16;102812.20;;;3.60
65290;BMP180;51893;59.754;10.110;2023-02-13T08:20:48;102813.20;;;3.60
65290;BMP180;51893;59.754;10.110;2023-02-13T08:23:17;102803.00;;;3.64
65290;BMP180;51893;59.754;10.110;2023-02-13T08:25:46;102802.60;;;3.70
65290;BMP180;51893;59.754;10.110;2023-02-13T08:28:15;102824.20;;;3.70
65290;BMP180;51893;59.754;10.110;2023-02-13T08:30:43;102823.80;;;3.80
65290;BMP180;51893;59.754;10.110;2023-02-13T08:33:11;102823.00;;;3.90
65290;BMP180;51893;59.754;10.110;2023-02-13T08:35:40;102817.20;;;3.96
65290;BMP180;51893;59.754;10.110;2023-02-13T08:38:08;102821.20;;;4.06
65290;BMP180;51893;59.754;10.110;2023-02-13T08:40:36;102813.80;;;4.10
65290;BMP180;51893;59.754;10.110;2023-02-13T08:43:05;102816.60;;;4.20
65290;BMP180;51893;59.754;10.110;2023-02-13T08:45:34;102812.20;;;4.30
65290;BMP180;51893;59.754;10.110;2023-02-13T08:48:03;102808.00;;;4.44
65290;BMP180;51893;59.754;10.110;2023-02-13T08:50:32;102812.20;;;4.60
65290;BMP180;51893;59.754;10.110;2023-02-13T08:53:02;102803.40;;;4.76
65290;BMP180;51893;59.754;10.110;2023-02-13T08:55:30;102815.40;;;4.90
65290;BMP180;51893;59.754;10.110;2023-02-13T08:58:02;102820.40;;;5.00
65290;BMP180;51893;59.754;10.110;2023-02-13T09:00:30;102827.60;;;5.04
65290;BMP180;51893;59.754;10.110;2023-02-13T09:03:03;102830.60;;;5.10
65290;BMP180;51893;59.754;10.110;2023-02-13T09:05:31;102827.20;;;5.20
65290;BMP180;51893;59.754;10.110;2023-02-13T09:08:01;102832.80;;;5.26
65290;BMP180;51893;59.754;10.110;2023-02-13T09:10:31;102837.20;;;5.36
65290;BMP180;51893;59.754;10.110;2023-02-13T09:13:01;102841.00;;;5.42
65290;BMP180;51893;59.754;10.110;2023-02-13T09:15:32;102843.80;;;5.50
65290;BMP180;51893;59.754;10.110;2023-02-13T09:18:01;102850.80;;;5.60
65290;BMP180;51893;59.754;10.110;2023-02-13T09:20:28;102854.60;;;5.62
65290;BMP180;51893;59.754;10.110;2023-02-13T09:22:58;102855.20;;;5.70
65290;BMP180;51893;59.754;10.110;2023-02-13T09:25:26;102858.40;;;5.70
65290;BMP180;51893;59.754;10.110;2023-02-13T09:27:55;102860.20;;;5.80
65290;BMP180;51893;59.754;10.110;2023-02-13T09:30:23;102861.00;;;5.90
65290;BMP180;51893;59.754;10.110;2023-02-13T09:32:53;102864.60;;;5.94
65290;BMP180;51893;59.754;10.110;2023-02-13T09:35:22;102872.40;;;6.00
65290;BMP180;51893;59.754;10.110;2023-02-13T09:37:51;102870.40;;;6.18
65290;BMP180;51893;59.754;10.110;2023-02-13T09:40:28;102876.40;;;6.30
65290;BMP180;51893;59.754;10.110;2023-02-13T09:43:26;102883.60;;;6.38
65290;BMP180;51893;59.754;10.110;2023-02-13T09:46:03;102889.20;;;6.40
65290;BMP180;51893;59.754;10.110;2023-02-13T09:48:39;102898.40;;;6.40
65290;BMP180;51893;59.754;10.110;2023-02-13T09:51:15;102894.20;;;6.44
65290;BMP180;51893;59.754;10.110;2023-02-13T09:56:46;102886.20;;;6.60
65290;BMP180;51893;59.754;10.110;2023-02-13T10:08:17;102909.60;;;6.90
65290;BMP180;51893;59.754;10.110;2023-02-13T10:17:00;102922.00;;;7.10
65290;BMP180;51893;59.754;10.110;2023-02-13T10:19:38;102927.00;;;7.20
65290;BMP180;51893;59.754;10.110;2023-02-13T10:22:21;102925.80;;;7.30
65290;BMP180;51893;59.754;10.110;2023-02-13T10:25:20;102930.00;;;7.36
65290;BMP180;51893;59.754;10.110;2023-02-13T10:28:16;102924.80;;;7.40
65290;BMP180;51893;59.754;10.110;2023-02-13T10:30:55;102929.20;;;7.50
65290;BMP180;51893;59.754;10.110;2023-02-13T10:33:49;102941.20;;;7.60
65290;BMP180;51893;59.754;10.110;2023-02-13T10:36:26;102949.20;;;7.70
65290;BMP180;51893;59.754;10.110;2023-02-13T10:39:12;102950.20;;;7.88
65290;BMP180;51893;59.754;10.110;2023-02-13T10:41:53;102955.20;;;8.00
65290;BMP180;51893;59.754;10.110;2023-02-13T10:50:22;102953.20;;;8.22
65290;BMP180;51893;59.754;10.110;2023-02-13T10:56:25;102958.00;;;8.40
65290;BMP180;51893;59.754;10.110;2023-02-13T10:59:05;102963.60;;;8.50
65290;BMP180;51893;59.754;10.110;2023-02-13T11:04:33;102981.60;;;8.70
65290;BMP180;51893;59.754;10.110;2023-02-13T11:07:16;102983.20;;;8.80
65290;BMP180;51893;59.754;10.110;2023-02-13T11:09:48;102985.00;;;8.80
65290;BMP180;51893;59.754;10.110;2023-02-13T11:12:32;102989.60;;;8.80
65290;BMP180;51893;59.754;10.110;2023-02-13T11:15:05;102992.00;;;8.72
65290;BMP180;51893;59.754;10.110;2023-02-13T11:17:39;102996.20;;;8.80
65290;BMP180;51893;59.754;10.110;2023-02-13T11:23:35;103005.40;;;8.90
65290;BMP180;51893;59.754;10.110;2023-02-13T11:26:14;103012.80;;;9.00
65290;BMP180;51893;59.754;10.110;2023-02-13T11:28:57;103012.60;;;9.10
65290;BMP180;51893;59.754;10.110;2023-02-13T11:31:38;103009.40;;;9.20
65290;BMP180;51893;59.754;10.110;2023-02-13T11:36:53;103021.60;;;9.30
65290;BMP180;51893;59.754;10.110;2023-02-13T11:39:25;103022.00;;;9.38
65290;BMP180;51893;59.754;10.110;2023-02-13T11:41:54;103020.00;;;9.40
65290;BMP180;51893;59.754;10.110;2023-02-13T11:44:28;103023.00;;;9.50
65290;BMP180;51893;59.754;10.110;2023-02-13T11:47:00;103024.60;;;9.70
65290;BMP180;51893;59.754;10.110;2023-02-13T11:49:38;103026.20;;;9.80
65290;BMP180;51893;59.754;10.110;2023-02-13T11:52:29;103030.20;;;9.80
65290;BMP180;51893;59.754;10.110;2023-02-13T11:55:32;103025.80;;;10.00
65290;BMP180;51893;59.754;10.110;2023-02-13T11:58:25;103022.60;;;10.10
65290;BMP180;51893;59.754;10.110;2023-02-13T12:01:25;103025.20;;;10.10
65290;BMP180;51893;59.754;10.110;2023-02-13T12:04:14;103027.00;;;10.20
65290;BMP180;51893;59.754;10.110;2023-02-13T12:07:22;103029.80;;;10.30
65290;BMP180;51893;59.754;10.110;2023-02-13T12:10:04;103042.40;;;10.40
65290;BMP180;51893;59.754;10.110;2023-02-13T12:15:36;103050.20;;;10.20
65290;BMP180;51893;59.754;10.110;2023-02-13T12:21:00;103057.80;;;10.10
65290;BMP180;51893;59.754;10.110;2023-02-13T12:24:02;103060.80;;;10.20
65290;BMP180;51893;59.754;10.110;2023-02-13T12:26:39;103064.60;;;10.30
65290;BMP180;51893;59.754;10.110;2023-02-13T12:29:22;103069.00;;;10.40
65290;BMP180;51893;59.754;10.110;2023-02-13T12:35:00;103076.40;;;10.40
65290;BMP180;51893;59.754;10.110;2023-02-13T12:46:29;103092.00;;;10.20
65290;BMP180;51893;59.754;10.110;2023-02-13T12:49:26;103097.60;;;10.18
65290;BMP180;51893;59.754;10.110;2023-02-13T12:52:40;103099.80;;;10.10
65290;BMP180;51893;59.754;10.110;2023-02-13T13:04:15;103112.80;;;9.70
65290;BMP180;51893;59.754;10.110;2023-02-13T13:10:35;103116.80;;;9.60
65290;BMP180;51893;59.754;10.110;2023-02-13T13:19:30;103127.20;;;9.70
65290;BMP180;51893;59.754;10.110;2023-02-13T13:22:18;103136.40;;;9.60
65290;BMP180;51893;59.754;10.110;2023-02-13T13:25:17;103123.40;;;9.60
65290;BMP180;51893;59.754;10.110;2023-02-13T13:27:52;103121.20;;;9.60
65290;BMP180;51893;59.754;10.110;2023-02-13T13:30:32;103115.20;;;9.50
65290;BMP180;51893;59.754;10.110;2023-02-13T13:33:23;103120.80;;;9.44
65290;BMP180;51893;59.754;10.110;2023-02-13T13:36:06;103124.80;;;9.40
65290;BMP180;51893;59.754;10.110;2023-02-13T13:48:35;103125.00;;;9.40
65290;BMP180;51893;59.754;10.110;2023-02-13T13:51:15;103125.60;;;9.30
65290;BMP180;51893;59.754;10.110;2023-02-13T14:05:30;103134.80;;;9.20
65290;BMP180;51893;59.754;10.110;2023-02-13T14:08:03;103136.00;;;9.10
65290;BMP180;51893;59.754;10.110;2023-02-13T14:11:25;103135.20;;;9.10
65290;BMP180;51893;59.754;10.110;2023-02-13T14:13:53;103136.00;;;9.10
65290;BMP180;51893;59.754;10.110;2023-02-13T14:16:44;103135.20;;;9.10
65290;BMP180;51893;59.754;10.110;2023-02-13T14:19:34;103145.20;;;9.02
65290;BMP180;51893;59.754;10.110;2023-02-13T14:24:58;103142.40;;;9.00
65290;BMP180;51893;59.754;10.110;2023-02-13T14:27:37;103149.40;;;9.00
65290;BMP180;51893;59.754;10.110;2023-02-13T14:30:26;103149.20;;;9.10
65290;BMP180;51893;59.754;10.110;2023-02-13T14:32:56;103153.20;;;9.10
65290;BMP180;51893;59.754;10.110;2023-02-13T14:35:30;103158.40;;;9.10
65290;BMP180;51893;59.754;10.110;2023-02-13T14:38:06;103162.20;;;9.18
65290;BMP180;51893;59.754;10.110;2023-02-13T14:40:50;103165.00;;;9.20
65290;BMP180;51893;59.754;10.110;2023-02-13T14:43:48;103169.80;;;9.22
65290;BMP180;51893;59.754;10.110;2023-02-13T14:46:38;103176.80;;;9.20
65290;BMP180;51893;59.754;10.110;2023-02-13T14:51:56;103178.40;;;9.20
65290;BMP180;51893;59.754;10.110;2023-02-13T14:54:41;103177.20;;;9.14
65290;BMP180;51893;59.754;10.110;2023-02-13T14:57:29;103186.20;;;9.18
65290;BMP180;51893;59.754;10.110;2023-02-13T15:00:08;103186.80;;;9.10
65290;BMP180;51893;59.754;10.110;2023-02-13T15:02:51;103187.00;;;9.10
65290;BMP180;51893;59.754;10.110;2023-02-13T15:05:31;103187.80;;;9.10
65290;BMP180;51893;59.754;10.110;2023-02-13T15:08:17;103188.80;;;9.00
65290;BMP180;51893;59.754;10.110;2023-02-13T15:10:54;103194.80;;;9.00
65290;BMP180;51893;59.754;10.110;2023-02-13T15:13:31;103194.60;;;9.00
65290;BMP180;51893;59.754;10.110;2023-02-13T15:16:12;103196.80;;;8.96
65290;BMP180;51893;59.754;10.110;2023-02-13T15:18:49;103204.00;;;8.70
65290;BMP180;51893;59.754;10.110;2023-02-13T15:21:25;103200.40;;;8.50
65290;BMP180;51893;59.754;10.110;2023-02-13T15:23:59;103191.80;;;8.30
65290;BMP180;51893;59.754;10.110;2023-02-13T15:26:28;103186.20;;;8.20
65290;BMP180;51893;59.754;10.110;2023-02-13T15:29:14;103193.20;;;8.20
65290;BMP180;51893;59.754;10.110;2023-02-13T15:31:54;103198.00;;;8.20
65290;BMP180;51893;59.754;10.110;2023-02-13T15:34:31;103191.60;;;8.10
65290;BMP180;51893;59.754;10.110;2023-02-13T15:37:01;103196.80;;;8.00
65290;BMP180;51893;59.754;10.110;2023-02-13T15:39:32;103199.00;;;7.90
65290;BMP180;51893;59.754;10.110;2023-02-13T15:42:10;103195.20;;;7.90
65290;BMP180;51893;59.754;10.110;2023-02-13T15:44:40;103189.80;;;7.84
65290;BMP180;51893;59.754;10.110;2023-02-13T15:47:27;103179.20;;;7.90
65290;BMP180;51893;59.754;10.110;2023-02-13T15:49:58;103178.80;;;8.00
65290;BMP180;51893;59.754;10.110;2023-02-13T15:52:38;103182.40;;;8.10
65290;BMP180;51893;59.754;10.110;2023-02-13T15:55:23;103193.40;;;8.18
65290;BMP180;51893;59.754;10.110;2023-02-13T15:57:58;103197.80;;;7.96
65290;BMP180;51893;59.754;10.110;2023-02-13T16:00:36;103198.80;;;7.60
65290;BMP180;51893;59.754;10.110;2023-02-13T16:03:14;103191.60;;;7.44
65290;BMP180;51893;59.754;10.110;2023-02-13T16:05:45;103185.60;;;7.40
65290;BMP180;51893;59.754;10.110;2023-02-13T16:08:32;103186.60;;;7.30
65290;BMP180;51893;59.754;10.110;2023-02-13T16:11:42;103193.60;;;7.30
65290;BMP180;51893;59.754;10.110;2023-02-13T16:14:20;103198.80;;;7.30
65290;BMP180;51893;59.754;10.110;2023-02-13T16:27:51;103205.20;;;6.90
65290;BMP180;51893;59.754;10.110;2023-02-13T16:30:42;103203.60;;;6.90
65290;BMP180;51893;59.754;10.110;2023-02-13T16:35:51;103216.40;;;6.70
65290;BMP180;51893;59.754;10.110;2023-02-13T16:44:03;103227.60;;;6.50
65290;BMP180;51893;59.754;10.110;2023-02-13T16:46:52;103224.60;;;6.40
65290;BMP180;51893;59.754;10.110;2023-02-13T16:49:24;103223.00;;;6.30
65290;BMP180;51893;59.754;10.110;2023-02-13T16:52:17;103228.80;;;6.20
65290;BMP180;51893;59.754;10.110;2023-02-13T16:54:58;103228.00;;;6.20
65290;BMP180;51893;59.754;10.110;2023-02-13T16:57:33;103231.80;;;6.10
65290;BMP180;51893;59.754;10.110;2023-02-13T17:00:18;103236.80;;;6.10
65290;BMP180;51893;59.754;10.110;2023-02-13T17:02:52;103239.80;;;6.00
65290;BMP180;51893;59.754;10.110;2023-02-13T17:05:25;103237.60;;;5.90
65290;BMP180;51893;59.754;10.110;2023-02-13T17:07:55;103230.00;;;5.80
65290;BMP180;51893;59.754;10.110;2023-02-13T17:10:37;103237.60;;;5.80
65290;BMP180;51893;59.754;10.110;2023-02-13T17:15:46;103251.40;;;5.60
65290;BMP180;51893;59.754;10.110;2023-02-13T17:18:16;103254.20;;;5.60